首页
METAR-TAF:

METAR-TAF

机场 :

L.F.韋德國際機場

百慕大, 百慕大

纬度: 32-22N, 经度: 064-41W, 海拔: 6米

当前天气观测

该预报发布于23分钟前的14:55 UTC
风速2节,风向多变
温度 30°C
湿度 70%
气压 1020 hPa
能见度10公里或以上
少量云层高于2200英尺
散云层高于7000英尺
散云层高于30000英尺
附近有阵雨

METAR: TXKF 111455Z VRB02KT 9999 VCSH FEW022 SCT070 SCT300 30/24 Q1020

时间: 12:18 (15:18 UTC)

预报

该预报发布于3小时和47分钟前的11:31 UTC
预报有效从11日的 12点(UTC)到 12日的 12点(UTC)
风速3节,风向多变
能见度10公里或以上
少量云层高于2500英尺
散云层高于4500英尺

TAF: TXKF 111131Z 1112/1212 VRB03KT 9999 FEW025 SCT045

超过4000个机场的气象观测和天气预报(METAR&TAF报告)。

可查询的气象台以黄色和红色小点在地图上表示。

将鼠标移到小点上方,可查看气象台名称。

然后点击查看天气观测和预报。

如需切换地图:点击带黑十字的绿色按钮放大地图;点击带横线的绿色按钮缩小地图;或者点击绿色箭头查看邻近地区的地图。


METAR-TAF: